Bei Facebook empfehlenBei Twitter postenGoogle plusPinterest

Das Wetter im Erzgebirge am 02.09.2017

Wetter und Klima am 02.09.2017 Holzhau im Erzgebirge (630m ü.NN)
Letzte gemessene Temperatur und Uhrzeit der Messung23:45:00 Uhr6.30 °C
Temperatur (Maximum / Höchstwert) und Uhrzeit der Messung15:15:00 Uhr15.90 °C
Temperatur (Minimum / Tiefstwert) und Uhrzeit der Messung23:45:006.30 °C
Errechneter Absolutwert der Temperaturschwankungen zwischen Tmin und Tmax des Tages9.60 K
Errechnete Tagesmitteltemperatur10.65313 °C
Gesamt - Niederschlag des Tages (in flüssiger Form)0.52 Liter / m²
Luftdruck (Maximum / Höchstwert) und Zeitpunkt der Messung01:00:00 Uhr1015.60 hPa
Luftdruck (Minimum / Tiefstwert) und Zeitpunkt der Messung20:15:00 Uhr1013.40 hPa
Errechneter Absolutwert der Luftdruckschwankungen des Tages2.20 hPa
Höchste gemessene Windgeschwindigkeit und Uhrzeit der Messung09:45:00 Uhr18.00 km/h
Errechnete Windhäufigkeit in Relation zu den Messwerten des Tages3.12500 %
Niedrigste Windkühle (Windchill) und Zeitpunkt der Messung23:45:00 Uhr6.30 °C
Taupunkt (Maximum / Höchstwert) und Uhrzeit der Messung12:45:00 Uhr12.10 °C
Taupunkt (Minimum / Tiefstwert) und Uhrzeit der Messung23:45:005.10 °C
Anzahl der automatisch eingelesenen Messwerte 96

Detaillierte Wetter- und Klima- Messwerte für den 02.09.2017 in Holzhau im Erzgebirge (630m ü.NN)
ZeitTemperaturLuftdruckRel. LuftfeuchteWindWindrichtungWindchillTaupunktNiederschlag l/m²
23:45:006.30 °C1014.10 hPa92.00 %5.10 °C0.52
23:30:006.60 °C1014.20 hPa92.00 %5.40 °C0.52
23:15:006.90 °C1014.40 hPa92.00 %5.70 °C0.52
23:00:007.10 °C1014.30 hPa92.00 %5.90 °C0.52
22:45:007.30 °C1014.30 hPa92.00 %6.10 °C0.52
22:30:007.50 °C1014.10 hPa92.00 %6.30 °C0.52
22:15:007.80 °C1014.10 hPa92.00 %6.60 °C0.52
22:00:007.90 °C1014.20 hPa92.00 %6.70 °C0.52
21:45:008.20 °C1014.10 hPa91.00 %6.80 °C0.52
21:30:008.40 °C1013.90 hPa91.00 %7.00 °C0.52
21:15:008.90 °C1014.00 hPa91.00 %7.50 °C0.52
21:00:009.30 °C1014.00 hPa91.00 %7.90 °C0.52
20:45:009.30 °C1013.60 hPa91.00 %7.90 °C0.52
20:30:009.30 °C1013.50 hPa89.00 %7.60 °C0.52
20:15:009.60 °C1013.40 hPa88.00 %7.70 °C0.52
20:00:0010.10 °C1013.60 hPa88.00 %8.20 °C0.52
19:45:0010.60 °C1013.50 hPa87.00 %8.50 °C0.52
19:30:0010.90 °C1013.80 hPa87.00 %8.80 °C0.52
19:15:0011.30 °C1013.70 hPa86.00 %9.00 °C0.52
19:00:0011.60 °C1013.90 hPa85.00 %9.20 °C0.52
18:45:0012.00 °C1013.90 hPa85.00 %9.60 °C0.52
18:30:0012.40 °C1013.80 hPa84.00 %9.80 °C0.52
18:15:0012.70 °C1013.70 hPa83.00 %9.90 °C0.52
18:00:0013.00 °C1013.70 hPa82.00 %10.00 °C0.52
17:45:0013.30 °C1014.00 hPa81.00 %10.10 °C0.52
17:30:0013.70 °C1013.90 hPa82.00 %10.70 °C0.52
17:15:0013.90 °C1013.80 hPa81.00 %10.70 °C0.52
17:00:0013.90 °C1014.00 hPa82.00 %10.90 °C0.52
16:45:0013.80 °C1014.00 hPa82.00 %10.80 °C0.52
16:30:0013.80 °C1014.10 hPa82.00 %10.80 °C0.52
16:15:0013.60 °C1014.10 hPa81.00 %10.40 °C0.52
16:00:0014.10 °C1014.30 hPa78.00 %10.30 °C0.52
15:45:0014.30 °C1014.30 hPa76.00 %10.10 °C0.52
15:30:0015.30 °C1014.30 hPa73.00 %10.50 °C0.52
15:15:0015.90 °C1014.30 hPa73.00 %11.10 °C0.52
15:00:0015.40 °C1014.40 hPa77.00 %11.40 °C0.52
14:45:0014.90 °C1014.50 hPa78.00 %11.10 °C0.52
14:30:0014.70 °C1014.40 hPa78.00 %5.04 km/hSW14.70 °C10.90 °C0.52
14:15:0014.80 °C1014.50 hPa77.00 %10.80 °C0.52
14:00:0014.80 °C1014.50 hPa79.00 %9.00 km/hNNO14.80 °C11.20 °C0.52
13:45:0014.50 °C1014.60 hPa78.00 %10.70 °C0.52
13:30:0014.60 °C1014.80 hPa79.00 %11.00 °C0.52
13:15:0015.10 °C1014.80 hPa79.00 %11.50 °C0.52
13:00:0015.00 °C1014.70 hPa81.00 %11.80 °C0.52
12:45:0014.80 °C1014.70 hPa84.00 %12.10 °C0.52
12:30:0013.30 °C1014.80 hPa88.00 %11.40 °C0.52
12:15:0012.30 °C1015.00 hPa88.00 %10.40 °C0.52
12:00:0012.30 °C1015.10 hPa88.00 %10.40 °C0.52
11:45:0012.40 °C1015.00 hPa89.00 %10.60 °C0.52
11:30:0012.20 °C1015.20 hPa88.00 %10.30 °C0.52
11:15:0012.50 °C1015.20 hPa88.00 %10.60 °C0.52
11:00:0012.80 °C1015.10 hPa89.00 %11.00 °C0.52
10:45:0012.30 °C1015.20 hPa90.00 %10.70 °C0.52
10:30:0012.30 °C1015.20 hPa91.00 %10.90 °C0.52
10:15:0011.80 °C1015.20 hPa93.00 %10.70 °C0.52
10:00:0011.50 °C1015.10 hPa93.00 %10.40 °C0.52
09:45:0011.60 °C1015.00 hPa95.00 %18.00 km/hWNW11.60 °C10.80 °C0.52
09:30:0011.10 °C1014.90 hPa95.00 %10.30 °C0.52
09:15:0010.60 °C1014.90 hPa96.00 %10.00 °C0.52
09:00:0010.10 °C1014.80 hPa96.00 %9.50 °C0.52
08:45:009.90 °C1014.80 hPa96.00 %9.30 °C0.52
08:30:009.90 °C1014.60 hPa96.00 %9.30 °C0.52
08:15:009.60 °C1014.60 hPa96.00 %9.00 °C0.52
08:00:009.30 °C1014.50 hPa96.00 %8.70 °C0.52
07:45:009.30 °C1014.50 hPa96.00 %8.70 °C0.52
07:30:009.30 °C1014.50 hPa96.00 %8.70 °C0.52
07:15:009.20 °C1014.50 hPa96.00 %8.60 °C0.52
07:00:009.10 °C1014.60 hPa96.00 %8.50 °C0.52
06:45:008.90 °C1014.70 hPa96.00 %8.30 °C0.52
06:30:008.90 °C1014.60 hPa96.00 %8.30 °C0.52
06:15:008.90 °C1014.40 hPa96.00 %8.30 °C0.52
06:00:008.90 °C1014.60 hPa96.00 %8.30 °C0.52
05:45:008.70 °C1014.60 hPa95.00 %7.90 °C0.52
05:30:008.70 °C1014.60 hPa95.00 %7.90 °C0.52
05:15:008.60 °C1014.80 hPa95.00 %7.80 °C0.52
05:00:008.60 °C1014.80 hPa95.00 %7.80 °C 
04:45:008.60 °C1014.90 hPa95.00 %7.80 °C 
04:30:008.60 °C1014.90 hPa95.00 %7.80 °C 
04:15:008.60 °C1015.00 hPa95.00 %7.80 °C 
04:00:008.50 °C1015.10 hPa95.00 %7.70 °C 
03:45:008.50 °C1015.10 hPa95.00 %7.70 °C 
03:30:008.50 °C1015.20 hPa95.00 %7.70 °C 
03:15:008.40 °C1015.20 hPa95.00 %7.60 °C 
03:00:008.40 °C1015.20 hPa95.00 %7.60 °C 
02:45:008.40 °C1015.20 hPa95.00 %7.60 °C 
02:30:008.40 °C1015.10 hPa95.00 %7.60 °C 
02:15:008.40 °C1015.20 hPa95.00 %7.60 °C 
02:00:008.50 °C1015.20 hPa95.00 %7.70 °C 
01:45:008.50 °C1015.20 hPa95.00 %7.70 °C 
01:30:008.50 °C1015.40 hPa95.00 %7.70 °C 
01:15:008.50 °C1015.50 hPa95.00 %7.70 °C 
01:00:008.40 °C1015.60 hPa95.00 %7.60 °C 
00:45:008.30 °C1015.60 hPa95.00 %7.50 °C 
00:30:008.20 °C1015.60 hPa95.00 %7.40 °C 
00:15:008.20 °C1015.30 hPa94.00 %7.30 °C 
00:00:008.20 °C1015.60 hPa94.00 %7.30 °C 

Permanenter Link zu dieser Seite: Wetter im Erzgebirge am 02.09.2017
Performance-Info: Die Erstellung der Seite / Statistik(en) / Tabelle(n) erforderte 5 Datenbankserver-Abfrage(n) und dauerte 101 Millisekunden. (Dieser Messwert ist von der Gesamt-Auslastung des Servers abhängig.)
Erzgebirge - Wetter | Erzgebirge - Wetter (Mobilgeräte) | Komplette Klimadatenbank